createdAt,value
2022-11-15T10:30:41.692Z,86.32
2022-11-15T10:33:31.713Z,85.20
2022-11-15T10:36:32.499Z,82.58
2022-11-15T10:38:59.142Z,81.13
2022-11-15T10:41:28.605Z,79.99
2022-11-15T10:44:04.284Z,81.63
2022-11-15T10:46:46.045Z,79.56
2022-11-15T10:49:23.133Z,80.66
2022-11-15T10:51:51.786Z,80.55
2022-11-15T10:54:29.189Z,81.73
2022-11-15T10:56:57.094Z,82.75
2022-11-15T10:59:36.152Z,80.34
2022-11-15T11:02:34.547Z,82.18
2022-11-15T11:05:01.588Z,80.55
2022-11-15T11:07:31.025Z,83.67
2022-11-15T11:10:49.752Z,83.34
2022-11-15T11:13:15.987Z,81.83
2022-11-15T11:15:44.314Z,81.87
2022-11-15T11:18:24.404Z,80.16
2022-11-15T11:20:59.883Z,82.66
2022-11-15T11:23:40.759Z,83.38
2022-11-15T11:26:44.899Z,81.20
2022-11-15T11:30:08.639Z,83.10
2022-11-15T11:32:44.674Z,82.76
2022-11-15T11:35:18.856Z,80.37
2022-11-15T11:37:55.021Z,81.01
2022-11-15T11:40:36.223Z,81.62
2022-11-15T11:43:22.511Z,80.44
2022-11-15T11:45:55.095Z,82.99
2022-11-15T11:48:43.676Z,80.80
2022-11-15T11:51:33.692Z,79.20
2022-11-15T11:54:04.706Z,80.44
2022-11-15T11:56:35.578Z,79.29
2022-11-15T11:59:20.959Z,78.44
2022-11-15T12:01:47.767Z,78.42
2022-11-15T12:04:36.097Z,78.83
2022-11-15T12:07:09.176Z,80.65
2022-11-15T12:09:53.991Z,81.26
2022-11-15T12:12:40.290Z,79.53
2022-11-15T12:15:09.939Z,78.42
2022-11-15T12:17:37.004Z,79.80
2022-11-15T12:20:18.212Z,79.12
2022-11-15T12:22:56.335Z,80.02
2022-11-15T12:25:37.325Z,77.84
2022-11-15T12:28:14.934Z,79.51
2022-11-15T12:30:52.280Z,79.91
2022-11-15T12:33:35.656Z,77.83
2022-11-15T12:36:04.819Z,78.14
2022-11-15T12:38:53.194Z,78.06
2022-11-15T12:41:20.094Z,80.28
2022-11-15T12:43:47.518Z,80.01
2022-11-15T12:46:21.545Z,81.69
2022-11-15T12:48:49.201Z,80.08
2022-11-15T12:51:15.855Z,79.55
2022-11-15T12:53:42.500Z,79.04
2022-11-15T12:56:15.368Z,78.53
2022-11-15T12:58:59.033Z,77.90
2022-11-15T13:01:31.958Z,77.64
2022-11-15T13:04:20.537Z,78.01
2022-11-15T13:06:53.994Z,78.80
2022-11-15T13:09:32.786Z,80.22
2022-11-15T13:12:09.519Z,80.41
2022-11-15T13:14:39.436Z,79.78
2022-11-15T13:17:21.149Z,79.01
2022-11-15T13:20:00.409Z,80.02
2022-11-15T13:22:39.132Z,79.60
2022-11-15T13:25:06.103Z,79.17
2022-11-15T13:27:32.716Z,78.81
2022-11-15T13:30:13.897Z,79.91
2022-11-15T13:32:40.517Z,79.71
2022-11-15T13:35:07.625Z,79.78
2022-11-15T13:37:34.244Z,79.58
2022-11-15T13:40:29.954Z,81.00
2022-11-15T13:42:56.920Z,79.22
2022-11-15T13:45:23.530Z,77.88
2022-11-15T13:47:58.003Z,80.03
2022-11-15T13:50:27.978Z,79.04
2022-11-15T13:52:54.594Z,79.86
2022-11-15T13:55:22.477Z,78.16
2022-11-15T13:57:59.522Z,77.54
2022-11-15T14:00:42.402Z,78.63
2022-11-15T14:03:24.051Z,80.19
2022-11-15T14:06:13.308Z,80.01
2022-11-15T14:08:43.920Z,79.74
2022-11-15T14:11:18.494Z,78.69
2022-11-15T14:14:09.995Z,77.83
2022-11-15T14:16:53.805Z,78.24
2022-11-15T14:19:26.329Z,79.25
2022-11-15T14:22:29.191Z,79.15
2022-11-15T14:25:14.118Z,77.98
2022-11-15T14:27:41.447Z,77.81
2022-11-15T14:30:13.968Z,77.62
2022-11-15T14:32:50.826Z,77.92
2022-11-15T14:35:19.828Z,78.60
2022-11-15T14:37:46.655Z,77.84
2022-11-15T14:40:18.024Z,77.31
2022-11-15T14:42:48.574Z,80.10
2022-11-15T14:45:17.857Z,78.62
2022-11-15T14:47:44.509Z,78.15
2022-11-15T14:50:15.288Z,78.77
2022-11-15T14:52:41.907Z,80.77
2022-11-15T14:55:17.711Z,79.65
2022-11-15T14:57:44.347Z,78.73
2022-11-15T15:00:11.324Z,80.51
2022-11-15T15:02:37.942Z,79.50
2022-11-15T15:05:15.433Z,80.20
2022-11-15T15:07:42.132Z,79.46
2022-11-15T15:10:38.375Z,79.48
2022-11-15T15:12:55.683Z,81.66
2022-11-15T15:15:26.882Z,79.94
2022-11-15T15:17:53.527Z,80.49
2022-11-15T15:20:20.155Z,80.28
2022-11-15T15:22:48.065Z,81.59
2022-11-15T15:25:20.327Z,81.34
2022-11-15T15:27:46.964Z,82.07
2022-11-15T15:30:13.965Z,82.10
2022-11-15T15:32:40.622Z,81.94
2022-11-15T15:35:07.417Z,82.13
2022-11-15T15:37:34.029Z,82.05
2022-11-15T15:40:00.672Z,81.75
2022-11-15T15:42:27.308Z,82.08
2022-11-15T15:44:53.937Z,81.47
2022-11-15T15:47:22.312Z,81.48
2022-11-15T15:49:49.486Z,81.92
2022-11-15T15:52:16.116Z,81.73
2022-11-15T15:54:42.739Z,82.77
2022-11-15T15:57:09.944Z,84.14
2022-11-15T15:59:36.604Z,83.50
2022-11-15T16:02:03.252Z,83.95
2022-11-15T16:04:29.897Z,82.00
2022-11-15T16:07:00.276Z,82.98
2022-11-15T16:09:26.949Z,82.70
2022-11-15T16:11:53.574Z,83.04
2022-11-15T16:14:20.210Z,83.41
2022-11-15T16:16:46.870Z,83.77
2022-11-15T16:19:13.501Z,84.25
2022-11-15T16:21:40.126Z,85.68
2022-11-15T16:24:06.749Z,83.74
2022-11-15T16:26:33.424Z,83.65
2022-11-15T16:29:00.144Z,84.41
2022-11-15T16:31:26.775Z,84.00
2022-11-15T16:33:53.394Z,84.03
2022-11-15T16:36:24.422Z,82.38
2022-11-15T16:38:53.763Z,81.87
2022-11-15T16:41:20.416Z,82.50
2022-11-15T16:43:47.153Z,83.34
2022-11-15T16:46:21.257Z,82.85
2022-11-15T16:48:48.130Z,83.11
2022-11-15T16:51:14.855Z,83.67
2022-11-15T16:53:41.518Z,83.91
2022-11-15T16:56:27.731Z,83.15
2022-11-15T16:58:54.954Z,82.91
2022-11-15T17:01:28.786Z,83.52
2022-11-15T17:03:55.614Z,82.52
2022-11-15T17:06:22.580Z,83.02
2022-11-15T17:08:49.279Z,82.34
2022-11-15T17:11:20.914Z,82.67
2022-11-15T17:13:47.651Z,82.40
2022-11-15T17:16:15.385Z,83.03
2022-11-15T17:18:42.188Z,81.56
2022-11-15T17:21:11.989Z,82.56
2022-11-15T17:23:38.613Z,83.42
2022-11-15T17:26:28.202Z,83.61
2022-11-15T17:28:55.237Z,83.55
2022-11-15T17:31:21.849Z,83.62
2022-11-15T17:33:48.472Z,83.12
2022-11-15T17:36:15.090Z,82.27
2022-11-15T17:38:41.941Z,82.29
2022-11-15T17:41:14.168Z,82.68
2022-11-15T17:43:41.038Z,83.73
2022-11-15T17:46:12.175Z,84.12
2022-11-15T17:48:38.898Z,82.66
2022-11-15T17:51:06.887Z,83.48
2022-11-15T17:53:37.889Z,83.23
2022-11-15T17:56:12.125Z,83.84
2022-11-15T17:58:38.871Z,84.20
2022-11-15T18:01:12.356Z,83.00
2022-11-15T18:03:39.023Z,83.60
2022-11-15T18:06:06.316Z,83.09
2022-11-15T18:08:33.199Z,83.45
2022-11-15T18:11:07.544Z,83.20
2022-11-15T18:13:37.767Z,83.19
2022-11-15T18:16:05.552Z,82.75
2022-11-15T18:18:32.831Z,82.99
2022-11-15T18:21:11.376Z,81.47
2022-11-15T18:23:38.128Z,82.52
2022-11-15T18:26:05.910Z,82.72
2022-11-15T18:28:34.315Z,82.18
2022-11-15T18:31:01.215Z,82.51
2022-11-15T18:33:28.316Z,81.58
2022-11-15T18:36:05.848Z,82.36
2022-11-15T18:38:32.498Z,81.85
2022-11-15T18:41:06.189Z,82.11
2022-11-15T18:43:33.237Z,83.14
2022-11-15T18:46:07.653Z,82.93
2022-11-15T18:48:34.571Z,83.41
2022-11-15T18:51:05.144Z,84.43
2022-11-15T18:53:32.877Z,84.19
2022-11-15T18:56:04.156Z,83.95
2022-11-15T18:58:34.975Z,83.92
2022-11-15T19:01:07.884Z,83.40
2022-11-15T19:03:35.383Z,83.06
2022-11-15T19:06:06.852Z,82.68
2022-11-15T19:08:35.534Z,82.82
2022-11-15T19:11:05.559Z,83.46
2022-11-15T19:13:32.407Z,83.82
2022-11-15T19:15:59.897Z,82.91
2022-11-15T19:18:26.719Z,83.08
2022-11-15T19:20:53.587Z,82.04
2022-11-15T19:23:20.245Z,83.58
2022-11-15T19:25:56.846Z,82.82
2022-11-15T19:28:23.463Z,83.42
2022-11-15T19:30:50.099Z,83.47
2022-11-15T19:33:16.829Z,82.32
2022-11-15T19:35:43.540Z,82.58
2022-11-15T19:38:10.181Z,82.08
2022-11-15T19:40:36.851Z,81.96
2022-11-15T19:43:03.621Z,82.71
2022-11-15T19:45:30.240Z,83.28
2022-11-15T19:47:57.882Z,83.64
2022-11-15T19:50:24.526Z,83.14
2022-11-15T19:52:51.157Z,83.34
2022-11-15T19:55:17.795Z,83.42
2022-11-15T19:57:44.428Z,85.75
2022-11-15T20:00:11.297Z,86.41
2022-11-15T20:02:37.925Z,84.47
2022-11-15T20:05:04.835Z,85.19
2022-11-15T20:07:31.523Z,83.75
2022-11-15T20:09:58.167Z,84.99
2022-11-15T20:12:24.795Z,84.06
2022-11-15T20:14:51.431Z,82.69
2022-11-15T20:17:18.061Z,84.12
2022-11-15T20:19:44.687Z,84.25
2022-11-15T20:22:11.320Z,83.74
2022-11-15T20:24:37.954Z,84.60
2022-11-15T20:27:04.603Z,84.75
2022-11-15T20:29:31.229Z,85.18
2022-11-15T20:31:57.878Z,83.99
2022-11-15T20:34:24.504Z,83.55
2022-11-15T20:36:51.152Z,83.27
2022-11-15T20:39:17.782Z,82.75
2022-11-15T20:41:44.438Z,82.36
2022-11-15T20:44:11.111Z,82.53
2022-11-15T20:46:37.739Z,81.27
2022-11-15T20:49:04.370Z,82.52
2022-11-15T20:51:31.014Z,82.25
2022-11-15T20:53:57.754Z,81.48
2022-11-15T20:56:24.386Z,82.62
2022-11-15T20:58:51.073Z,81.79
2022-11-15T21:01:18.629Z,82.52
2022-11-15T21:03:45.341Z,82.64
2022-11-15T21:06:11.965Z,83.02
2022-11-15T21:08:38.575Z,83.96
2022-11-15T21:11:05.296Z,83.86
2022-11-15T21:13:31.953Z,83.84
2022-11-15T21:15:58.585Z,83.89
2022-11-15T21:18:25.224Z,83.60
2022-11-15T21:20:51.979Z,83.09
2022-11-15T21:23:18.616Z,81.80
2022-11-15T21:25:50.130Z,83.36
2022-11-15T21:28:16.917Z,82.85
2022-11-15T21:30:52.943Z,81.90
2022-11-15T21:33:19.567Z,81.95
2022-11-15T21:35:46.202Z,81.93
2022-11-15T21:38:12.827Z,84.28
2022-11-15T21:40:39.449Z,84.24
2022-11-15T21:43:06.084Z,84.37
2022-11-15T21:45:32.719Z,83.63
2022-11-15T21:47:59.356Z,83.74
2022-11-15T21:50:25.987Z,82.28
2022-11-15T21:52:52.620Z,82.72
2022-11-15T21:55:19.248Z,82.66
2022-11-15T21:57:45.872Z,83.18
2022-11-15T22:00:13.234Z,84.18
2022-11-15T22:02:39.866Z,86.86
2022-11-15T22:05:07.025Z,84.69
2022-11-15T22:07:33.712Z,84.25
2022-11-15T22:10:00.353Z,83.28
2022-11-15T22:12:29.649Z,85.19
2022-11-15T22:14:56.568Z,83.95
2022-11-15T22:17:23.180Z,83.63
2022-11-15T22:19:52.809Z,83.58
2022-11-15T22:22:19.744Z,84.90
2022-11-15T22:24:48.250Z,83.55
2022-11-15T22:27:14.870Z,83.06
2022-11-15T22:29:41.485Z,83.44
2022-11-15T22:32:08.121Z,83.52
2022-11-15T22:34:34.752Z,84.35
2022-11-15T22:39:48.101Z,83.74
2022-11-15T22:42:18.189Z,85.34
2022-11-15T22:44:47.421Z,85.47
2022-11-15T22:47:14.050Z,85.35
2022-11-15T22:49:40.679Z,84.34
2022-11-15T22:52:07.307Z,82.98
2022-11-15T22:54:33.926Z,85.70
2022-11-15T22:57:00.558Z,87.68
2022-11-15T22:59:27.209Z,86.66
2022-11-15T23:01:53.834Z,84.65
2022-11-15T23:04:20.462Z,85.56
2022-11-15T23:06:47.121Z,88.33
2022-11-15T23:09:13.790Z,87.50
2022-11-15T23:11:40.401Z,85.93
2022-11-15T23:14:07.032Z,84.94
2022-11-15T23:16:33.656Z,88.08
2022-11-15T23:19:08.039Z,85.35
2022-11-15T23:21:36.446Z,84.47
2022-11-15T23:24:03.958Z,84.54
2022-11-15T23:26:30.591Z,86.54
2022-11-15T23:28:57.202Z,86.01
2022-11-15T23:31:23.830Z,85.80
2022-11-15T23:33:50.439Z,85.70
2022-11-15T23:36:17.073Z,86.54
2022-11-15T23:38:43.703Z,87.42
2022-11-15T23:41:10.330Z,88.09
2022-11-15T23:43:36.950Z,88.02
2022-11-15T23:46:03.575Z,88.02
2022-11-15T23:48:30.330Z,87.65
2022-11-15T23:50:57.171Z,86.18
2022-11-15T23:53:23.863Z,86.88
2022-11-15T23:56:20.027Z,86.85
2022-11-15T23:58:46.653Z,86.49
